Time;durP1;ratioP1;P1;durP2;ratioP2;P2;SDS_P1;SDS_P2;PMS_P1;PMS_P2;Temp;Humidity;BMP_temperature;BMP_pressure;BME280_temperature;BME280_humidity;BME280_pressure;Samples;Min_cycle;Max_cycle;Signal;HPM_P1;HPM_P2
2021/11/21 00:00:53;;;;;;;16.27;12.47;;;6.00;99.90;;;;;;5067935;28;20640;-63
2021/11/21 00:03:20;;;;;;;18.17;14.20;;;6.00;99.90;;;;;;5065888;28;20440;-63
2021/11/21 00:05:47;;;;;;;17.93;13.23;;;6.00;99.90;;;;;;5067053;28;20976;-63
2021/11/21 00:08:14;;;;;;;19.03;15.13;;;6.00;99.90;;;;;;5064942;28;21035;-63
2021/11/21 00:10:43;;;;;;;17.13;14.27;;;5.90;99.90;;;;;;5067423;28;20462;-64
2021/11/21 00:13:11;;;;;;;21.97;14.73;;;5.90;99.90;;;;;;5066935;28;20851;-64
2021/11/21 00:15:41;;;;;;;16.63;12.40;;;6.00;99.90;;;;;;5066179;28;20432;-64
2021/11/21 00:18:08;;;;;;;19.23;15.73;;;5.90;99.90;;;;;;5064054;28;20476;-64
2021/11/21 00:20:35;;;;;;;17.37;14.00;;;5.90;99.90;;;;;;5060311;28;20470;-64
2021/11/21 00:23:02;;;;;;;18.53;13.90;;;5.90;99.90;;;;;;5059019;28;20450;-64
2021/11/21 00:25:28;;;;;;;20.93;14.20;;;5.90;99.90;;;;;;5060511;28;20530;-64
2021/11/21 00:27:57;;;;;;;22.50;13.60;;;5.90;99.90;;;;;;5063409;28;20464;-65
2021/11/21 00:30:24;;;;;;;16.80;13.50;;;5.90;99.90;;;;;;5063726;28;20945;-63
2021/11/21 00:32:50;;;;;;;20.07;14.10;;;5.90;99.90;;;;;;5064025;28;20862;-64
2021/11/21 00:35:17;;;;;;;18.67;14.30;;;5.90;99.90;;;;;;5065566;28;20442;-63
2021/11/21 00:37:44;;;;;;;16.30;12.90;;;5.90;99.90;;;;;;5046078;28;20511;-69
2021/11/21 00:40:12;;;;;;;16.73;13.17;;;5.90;99.90;;;;;;5048630;28;21140;-64
2021/11/21 00:42:39;;;;;;;17.57;13.73;;;5.90;99.90;;;;;;5042242;28;20444;-64
2021/11/21 00:45:10;;;;;;;18.87;15.20;;;5.80;99.90;;;;;;5049306;28;20440;-64
2021/11/21 00:47:38;;;;;;;18.70;14.50;;;5.80;99.90;;;;;;5047352;28;20463;-65
2021/11/21 00:50:07;;;;;;;19.93;13.70;;;5.90;99.90;;;;;;5049046;28;20499;-64
2021/11/21 00:52:34;;;;;;;16.90;13.90;;;5.90;99.90;;;;;;5048330;28;20494;-65
2021/11/21 00:55:09;;;;;;;17.47;14.10;;;5.90;99.90;;;;;;5048961;28;20455;-65
2021/11/21 00:57:36;;;;;;;18.17;14.10;;;5.90;99.90;;;;;;5047078;28;20487;-64
2021/11/21 01:00:05;;;;;;;19.43;14.97;;;5.80;99.90;;;;;;5049074;28;20463;-64
2021/11/21 01:02:33;;;;;;;19.87;15.00;;;5.80;99.90;;;;;;5047939;28;20454;-64
2021/11/21 01:05:01;;;;;;;20.57;15.00;;;5.70;99.90;;;;;;5048616;28;20798;-64
2021/11/21 01:07:28;;;;;;;17.93;14.53;;;5.60;99.90;;;;;;5047111;28;20465;-64
2021/11/21 01:09:55;;;;;;;17.83;14.30;;;5.60;99.90;;;;;;5048996;28;20532;-64
2021/11/21 01:12:22;;;;;;;19.60;14.07;;;5.60;99.90;;;;;;5048592;28;20466;-63
2021/11/21 01:14:49;;;;;;;21.83;16.33;;;5.60;99.90;;;;;;5048710;28;20444;-64
2021/11/21 01:17:15;;;;;;;20.60;15.27;;;5.60;99.90;;;;;;5047256;28;20511;-60
2021/11/21 01:19:44;;;;;;;20.83;15.50;;;5.60;99.90;;;;;;5048084;28;20440;-63
2021/11/21 01:22:11;;;;;;;23.17;14.50;;;5.60;99.90;;;;;;5044513;28;20445;-65
2021/11/21 01:24:38;;;;;;;21.20;15.57;;;5.60;99.90;;;;;;5048554;28;20452;-64
2021/11/21 01:27:05;;;;;;;21.00;14.90;;;5.60;99.90;;;;;;5047263;28;20458;-64
2021/11/21 01:29:32;;;;;;;19.63;15.60;;;5.70;99.90;;;;;;5048271;28;20445;-64
2021/11/21 01:31:59;;;;;;;21.10;15.33;;;5.70;99.90;;;;;;5048237;28;21084;-64
2021/11/21 01:34:26;;;;;;;20.07;14.20;;;5.70;99.90;;;;;;5047795;28;20480;-64
2021/11/21 01:36:55;;;;;;;19.93;15.07;;;5.80;99.90;;;;;;5047035;28;20555;-64
2021/11/21 01:39:21;;;;;;;21.00;14.50;;;5.80;99.90;;;;;;5048458;28;20470;-64
2021/11/21 01:41:48;;;;;;;17.47;13.93;;;5.80;99.90;;;;;;5049436;28;20447;-64
2021/11/21 01:44:16;;;;;;;21.53;15.90;;;5.80;99.90;;;;;;5047867;28;20821;-60
2021/11/21 01:46:44;;;;;;;18.70;14.87;;;5.80;99.90;;;;;;5047876;28;20503;-64
2021/11/21 01:49:11;;;;;;;18.70;13.63;;;5.70;99.90;;;;;;5049159;28;20930;-64
2021/11/21 01:51:38;;;;;;;18.90;14.50;;;5.70;99.90;;;;;;5048300;28;20547;-66
2021/11/21 01:54:08;;;;;;;17.20;13.73;;;5.80;99.90;;;;;;5048709;28;20441;-65
2021/11/21 01:56:35;;;;;;;16.87;13.37;;;5.80;99.90;;;;;;5047352;28;20670;-64
2021/11/21 01:59:03;;;;;;;18.57;13.73;;;5.80;99.90;;;;;;5043507;28;20569;-64
2021/11/21 02:01:30;;;;;;;16.77;12.47;;;5.70;99.90;;;;;;5046658;28;20472;-65
2021/11/21 02:03:57;;;;;;;20.27;14.57;;;5.80;99.90;;;;;;5047536;28;20440;-64
2021/11/21 02:06:24;;;;;;;16.73;13.73;;;5.70;99.90;;;;;;5046209;28;20452;-64
2021/11/21 02:08:52;;;;;;;19.73;15.03;;;5.60;99.90;;;;;;5046902;28;20934;-65
2021/11/21 02:11:21;;;;;;;18.87;14.73;;;5.60;99.90;;;;;;5047059;28;20449;-65
2021/11/21 02:13:49;;;;;;;20.20;15.30;;;5.50;99.90;;;;;;5047309;28;20458;-64
2021/11/21 02:16:17;;;;;;;25.43;16.87;;;5.50;99.90;;;;;;5046346;28;20817;-64
2021/11/21 02:18:45;;;;;;;22.87;16.60;;;5.40;99.90;;;;;;5046679;28;20486;-64
2021/11/21 02:21:16;;;;;;;21.13;15.70;;;5.40;99.90;;;;;;5047434;28;20458;-63
2021/11/21 02:23:43;;;;;;;21.27;15.20;;;5.30;99.90;;;;;;5047211;28;20451;-64
2021/11/21 02:26:10;;;;;;;21.17;14.80;;;5.30;99.90;;;;;;5047184;28;20453;-64
2021/11/21 02:28:38;;;;;;;18.40;14.53;;;5.40;99.90;;;;;;5045710;28;20464;-64
2021/11/21 02:31:05;;;;;;;17.97;13.83;;;5.50;99.90;;;;;;5047456;28;20547;-64
2021/11/21 02:33:32;;;;;;;18.47;14.17;;;5.50;99.90;;;;;;5046851;28;20490;-64
2021/11/21 02:36:02;;;;;;;18.10;13.90;;;5.50;99.90;;;;;;5046406;28;20639;-64
2021/11/21 02:38:31;;;;;;;21.77;15.20;;;5.50;99.90;;;;;;5042508;28;21042;-64
2021/11/21 02:41:00;;;;;;;20.17;14.53;;;5.40;99.90;;;;;;5043663;28;20986;-64
2021/11/21 02:43:27;;;;;;;21.90;15.07;;;5.40;99.90;;;;;;5050723;28;20459;-65
2021/11/21 02:45:56;;;;;;;16.43;12.70;;;5.40;99.90;;;;;;5047576;28;20440;-65
2021/11/21 02:48:25;;;;;;;20.03;14.43;;;5.40;99.90;;;;;;5046627;28;20456;-64
2021/11/21 02:50:52;;;;;;;19.97;14.10;;;5.30;99.90;;;;;;5049496;28;20441;-65
2021/11/21 02:53:21;;;;;;;19.73;13.87;;;5.30;99.90;;;;;;5049788;28;20448;-64
2021/11/21 02:55:52;;;;;;;20.40;15.73;;;5.20;99.90;;;;;;5049742;28;20526;-66
2021/11/21 02:58:19;;;;;;;24.03;15.33;;;5.20;99.90;;;;;;5048526;28;20494;-64
2021/11/21 03:00:46;;;;;;;24.03;14.73;;;5.20;99.90;;;;;;5049711;28;20829;-64
2021/11/21 03:03:14;;;;;;;16.80;12.70;;;5.20;99.90;;;;;;5049770;28;20448;-65
2021/11/21 03:05:41;;;;;;;18.17;13.13;;;5.20;99.90;;;;;;5051409;28;20472;-65
2021/11/21 03:08:08;;;;;;;16.80;13.40;;;5.20;99.90;;;;;;5052435;28;20468;-65
2021/11/21 03:10:36;;;;;;;19.47;14.17;;;5.20;99.90;;;;;;5053818;28;20456;-64
2021/11/21 03:13:06;;;;;;;20.80;14.10;;;5.20;99.90;;;;;;5053853;28;20940;-65
2021/11/21 03:15:34;;;;;;;23.03;14.90;;;5.20;99.90;;;;;;5053699;28;20963;-65
2021/11/21 03:18:03;;;;;;;18.33;14.00;;;5.20;99.90;;;;;;5052262;28;20488;-65
2021/11/21 03:20:35;;;;;;;19.50;14.37;;;5.20;99.90;;;;;;5053342;28;20455;-65
2021/11/21 03:23:02;;;;;;;18.70;14.33;;;5.20;99.90;;;;;;5053674;28;20447;-65
2021/11/21 03:25:31;;;;;;;18.70;14.23;;;5.20;99.90;;;;;;5053353;28;20448;-64
2021/11/21 03:27:57;;;;;;;18.73;13.70;;;5.20;99.90;;;;;;5052261;28;20464;-64
2021/11/21 03:30:26;;;;;;;18.47;13.57;;;5.30;99.90;;;;;;5053306;28;20978;-65
2021/11/21 03:32:54;;;;;;;17.47;13.20;;;5.20;99.90;;;;;;5053318;28;20452;-65
2021/11/21 03:35:24;;;;;;;16.90;12.90;;;5.20;99.90;;;;;;5053050;28;20454;-64
2021/11/21 03:37:51;;;;;;;18.90;12.80;;;5.20;99.90;;;;;;5051974;28;20818;-65
2021/11/21 03:40:19;;;;;;;17.23;11.70;;;5.20;99.90;;;;;;5053152;28;20527;-65
2021/11/21 03:42:46;;;;;;;19.83;13.47;;;5.30;99.90;;;;;;5053206;28;20821;-65
2021/11/21 03:45:14;;;;;;;19.03;12.80;;;5.20;99.90;;;;;;5053108;28;20446;-65
2021/11/21 03:47:42;;;;;;;17.43;11.90;;;5.20;99.90;;;;;;5051627;28;20464;-65
2021/11/21 03:50:12;;;;;;;17.20;11.90;;;5.30;99.90;;;;;;5053067;28;20452;-65
2021/11/21 03:52:40;;;;;;;16.60;12.83;;;5.30;99.90;;;;;;5053161;28;20468;-65
2021/11/21 03:55:07;;;;;;;15.87;12.00;;;5.40;99.90;;;;;;5052931;28;20444;-64
2021/11/21 03:57:34;;;;;;;16.77;11.90;;;5.40;99.90;;;;;;5051686;28;20464;-64
2021/11/21 04:00:01;;;;;;;17.77;12.10;;;5.40;99.90;;;;;;5052727;28;20467;-65
2021/11/21 04:02:28;;;;;;;15.43;11.63;;;5.30;99.90;;;;;;5052724;28;20449;-64
2021/11/21 04:04:56;;;;;;;15.83;12.60;;;5.30;99.90;;;;;;5053072;28;20460;-65
2021/11/21 04:07:23;;;;;;;18.57;13.70;;;5.30;99.90;;;;;;5051743;28;20896;-64
2021/11/21 04:09:50;;;;;;;16.57;12.27;;;5.40;99.90;;;;;;5053080;28;20436;-64
2021/11/21 04:12:17;;;;;;;20.63;13.77;;;5.30;99.90;;;;;;5052790;28;20444;-64
2021/11/21 04:14:44;;;;;;;19.17;13.20;;;5.40;99.90;;;;;;5052578;28;20495;-64
2021/11/21 04:17:11;;;;;;;16.10;12.73;;;5.40;99.90;;;;;;5051457;28;20474;-64
2021/11/21 04:19:38;;;;;;;18.63;13.30;;;5.40;99.90;;;;;;5052578;28;20494;-64
2021/11/21 04:22:06;;;;;;;19.67;13.83;;;5.40;99.90;;;;;;5052484;28;20456;-65
2021/11/21 04:24:33;;;;;;;19.83;13.57;;;5.40;99.90;;;;;;5052746;28;20459;-65
2021/11/21 04:26:59;;;;;;;20.53;13.40;;;5.40;99.90;;;;;;5051245;28;20872;-64
2021/11/21 04:29:27;;;;;;;17.03;12.30;;;5.40;99.90;;;;;;5052219;28;20445;-64
2021/11/21 04:31:54;;;;;;;19.97;13.17;;;5.50;99.90;;;;;;5052498;28;20506;-65
2021/11/21 04:34:21;;;;;;;18.50;11.70;;;5.40;99.90;;;;;;5052197;28;20448;-64
2021/11/21 04:36:48;;;;;;;16.27;12.00;;;5.40;99.90;;;;;;5051000;28;21014;-65
2021/11/21 04:39:17;;;;;;;16.43;11.70;;;5.40;99.90;;;;;;5052092;28;20857;-65
2021/11/21 04:41:43;;;;;;;18.40;13.83;;;5.40;99.90;;;;;;5051946;28;20455;-65
2021/11/21 04:44:10;;;;;;;17.90;12.47;;;5.40;99.90;;;;;;5052161;28;20452;-65
2021/11/21 04:46:37;;;;;;;17.23;12.50;;;5.40;99.90;;;;;;5050862;28;20470;-64
2021/11/21 04:49:04;;;;;;;14.97;11.13;;;5.40;99.90;;;;;;5051859;28;20457;-65
2021/11/21 04:51:31;;;;;;;16.40;12.20;;;5.30;99.90;;;;;;5052048;28;20838;-65
2021/11/21 04:53:59;;;;;;;19.33;12.70;;;5.30;99.90;;;;;;5051935;28;21001;-64
2021/11/21 04:56:27;;;;;;;17.10;12.33;;;5.30;99.90;;;;;;5050773;28;20445;-64
2021/11/21 04:58:54;;;;;;;15.07;11.37;;;5.30;99.90;;;;;;5051216;28;21013;-65
2021/11/21 05:01:21;;;;;;;13.27;10.33;;;5.30;99.90;;;;;;5051841;28;20453;-65
2021/11/21 05:03:47;;;;;;;16.50;11.20;;;5.30;99.90;;;;;;5051923;28;20450;-64
2021/11/21 05:06:14;;;;;;;16.40;12.07;;;5.30;99.90;;;;;;5051193;28;20463;-62
2021/11/21 05:08:41;;;;;;;16.30;11.20;;;5.30;99.90;;;;;;5050953;28;20536;-64
2021/11/21 05:11:08;;;;;;;21.67;12.33;;;5.30;99.90;;;;;;5051266;28;20459;-64
2021/11/21 05:13:36;;;;;;;15.40;11.30;;;5.30;99.90;;;;;;5051538;28;20447;-65
2021/11/21 05:16:03;;;;;;;15.93;10.87;;;5.20;99.90;;;;;;5051220;28;20447;-65
2021/11/21 05:18:30;;;;;;;16.83;11.82;;;5.20;99.90;;;;;;5049871;28;20483;-65
2021/11/21 05:20:57;;;;;;;16.03;11.33;;;5.20;99.90;;;;;;5051477;28;20209;-64
2021/11/21 05:23:24;;;;;;;16.30;11.10;;;5.20;99.90;;;;;;5051272;28;20822;-64
2021/11/21 05:25:51;;;;;;;16.13;11.53;;;5.20;99.90;;;;;;5051521;28;20458;-65
2021/11/21 05:28:17;;;;;;;16.53;11.87;;;5.20;99.90;;;;;;5049443;28;20468;-64
2021/11/21 05:30:48;;;;;;;18.23;12.50;;;5.20;99.90;;;;;;5051034;28;20488;-65
2021/11/21 05:33:15;;;;;;;20.20;12.80;;;5.10;99.90;;;;;;5051053;28;20493;-64
2021/11/21 05:35:42;;;;;;;14.67;10.40;;;5.10;99.90;;;;;;5050880;28;20449;-63
2021/11/21 05:38:09;;;;;;;15.63;10.77;;;5.10;99.90;;;;;;5050225;28;20472;-65
2021/11/21 05:40:36;;;;;;;15.87;11.03;;;5.00;99.90;;;;;;5051001;28;20443;-64
2021/11/21 05:43:03;;;;;;;14.20;10.40;;;5.10;99.90;;;;;;5051760;28;20449;-64
2021/11/21 05:45:30;;;;;;;13.50;10.80;;;5.00;99.90;;;;;;5050864;28;20450;-64
2021/11/21 05:47:58;;;;;;;15.60;12.03;;;5.10;99.90;;;;;;5049638;28;20478;-65
2021/11/21 05:50:25;;;;;;;15.90;12.47;;;5.10;99.90;;;;;;5050662;28;20451;-65
2021/11/21 05:52:53;;;;;;;14.73;11.33;;;5.10;99.90;;;;;;5050811;28;20456;-65
2021/11/21 05:55:21;;;;;;;14.97;11.40;;;5.10;99.90;;;;;;5050766;28;20452;-65
2021/11/21 05:57:49;;;;;;;13.67;11.73;;;5.00;99.90;;;;;;5049465;28;20469;-65
2021/11/21 06:00:18;;;;;;;13.37;11.13;;;5.10;99.90;;;;;;5050448;28;20491;-64
2021/11/21 06:02:45;;;;;;;13.63;10.97;;;5.10;99.90;;;;;;5050626;28;20455;-65
2021/11/21 06:05:14;;;;;;;13.13;11.53;;;5.10;99.90;;;;;;5050294;28;20444;-65
2021/11/21 06:07:41;;;;;;;13.17;11.70;;;5.10;99.90;;;;;;5049379;28;20468;-65
2021/11/21 06:10:09;;;;;;;15.03;10.83;;;5.10;99.90;;;;;;5050264;28;20819;-65
2021/11/21 06:12:36;;;;;;;12.93;11.30;;;5.10;99.90;;;;;;5050516;28;20444;-65
2021/11/21 06:15:03;;;;;;;16.20;11.50;;;5.00;99.90;;;;;;5050398;28;20451;-65
2021/11/21 06:17:30;;;;;;;14.30;11.10;;;5.00;99.90;;;;;;5049123;28;20460;-65
2021/11/21 06:19:57;;;;;;;13.80;10.80;;;5.00;99.90;;;;;;5049867;28;20491;-65
2021/11/21 06:22:26;;;;;;;13.03;11.00;;;4.90;99.90;;;;;;5050148;28;20460;-65
2021/11/21 06:24:53;;;;;;;14.30;11.00;;;4.80;99.90;;;;;;5050281;28;20444;-64
2021/11/21 06:27:20;;;;;;;14.43;11.80;;;4.80;99.90;;;;;;5048923;28;20565;-64
2021/11/21 06:29:46;;;;;;;11.87;10.40;;;4.80;99.90;;;;;;5050182;28;20461;-64
2021/11/21 06:32:13;;;;;;;16.10;12.53;;;4.80;99.90;;;;;;5050111;28;20455;-64
2021/11/21 06:34:40;;;;;;;14.00;11.10;;;4.90;99.90;;;;;;5050523;28;20814;-65
2021/11/21 06:37:08;;;;;;;14.93;12.23;;;4.80;99.90;;;;;;5048860;28;20841;-65
2021/11/21 06:39:39;;;;;;;13.43;11.17;;;4.90;99.90;;;;;;5049165;28;20571;-65
2021/11/21 06:42:07;;;;;;;14.17;11.27;;;4.80;99.90;;;;;;5050032;28;20480;-65
2021/11/21 06:44:34;;;;;;;13.83;10.80;;;4.80;99.90;;;;;;5050031;28;20448;-64
2021/11/21 06:47:01;;;;;;;13.70;11.23;;;4.90;99.90;;;;;;5049021;28;20493;-64
2021/11/21 06:49:29;;;;;;;14.30;10.63;;;4.90;99.90;;;;;;5050133;28;20447;-64
2021/11/21 06:51:56;;;;;;;13.37;10.53;;;4.90;99.90;;;;;;5049787;28;20821;-65
2021/11/21 06:54:23;;;;;;;13.40;10.67;;;4.90;99.90;;;;;;5050078;28;20825;-64
2021/11/21 06:56:51;;;;;;;13.43;10.40;;;4.90;99.90;;;;;;5048303;28;20465;-64
2021/11/21 06:59:17;;;;;;;14.00;10.30;;;4.90;99.90;;;;;;5049575;28;20475;-64
2021/11/21 07:01:44;;;;;;;12.17;10.10;;;4.90;99.90;;;;;;5049709;28;20816;-65
2021/11/21 07:04:11;;;;;;;13.20;10.20;;;4.80;99.90;;;;;;5049747;28;20448;-65
2021/11/21 07:06:41;;;;;;;11.90;10.00;;;4.80;99.90;;;;;;5048163;28;20837;-65
2021/11/21 07:09:09;;;;;;;14.10;10.37;;;4.80;99.90;;;;;;5049484;28;20448;-64
2021/11/21 07:11:37;;;;;;;11.13;9.93;;;4.80;99.90;;;;;;5049256;28;20468;-65
2021/11/21 07:14:07;;;;;;;14.80;11.00;;;4.80;99.90;;;;;;5049303;28;20467;-65
2021/11/21 07:16:34;;;;;;;14.33;10.53;;;4.80;99.90;;;;;;5048361;28;21090;-63
2021/11/21 07:19:01;;;;;;;13.60;10.43;;;4.80;99.90;;;;;;5049072;28;21017;-63
2021/11/21 07:21:28;;;;;;;14.83;10.93;;;4.80;99.90;;;;;;5049304;28;20450;-65
2021/11/21 07:23:55;;;;;;;14.30;10.43;;;4.80;99.90;;;;;;5049325;28;20463;-65
2021/11/21 07:26:22;;;;;;;16.37;11.53;;;4.80;99.90;;;;;;5048245;28;20447;-65
2021/11/21 07:28:48;;;;;;;12.97;11.57;;;4.80;99.90;;;;;;5049059;28;20817;-64
2021/11/21 07:31:17;;;;;;;15.13;12.07;;;4.90;99.90;;;;;;5049364;28;20451;-65
2021/11/21 07:33:43;;;;;;;12.83;10.27;;;4.90;99.90;;;;;;5049158;28;20452;-64
2021/11/21 07:36:10;;;;;;;13.77;10.83;;;4.80;99.90;;;;;;5048789;28;21197;-63
2021/11/21 07:38:39;;;;;;;14.40;10.70;;;4.90;99.90;;;;;;5047823;28;20468;-64
2021/11/21 07:41:06;;;;;;;14.93;11.20;;;4.80;99.90;;;;;;5048938;28;20452;-65
2021/11/21 07:43:33;;;;;;;13.07;10.27;;;4.80;99.90;;;;;;5048942;28;20448;-64
2021/11/21 07:46:00;;;;;;;16.30;11.17;;;4.80;99.90;;;;;;5049095;28;20441;-65
2021/11/21 07:48:29;;;;;;;15.77;12.03;;;4.70;99.90;;;;;;5047753;28;20468;-64
2021/11/21 07:50:56;;;;;;;19.23;14.17;;;4.70;99.90;;;;;;5049512;28;20448;-64
2021/11/21 07:53:24;;;;;;;19.73;12.80;;;4.70;99.90;;;;;;5052518;28;20450;-64
2021/11/21 07:55:51;;;;;;;22.70;12.03;;;4.70;99.90;;;;;;5052411;28;20457;-64
2021/11/21 07:58:18;;;;;;;15.50;11.50;;;4.70;99.90;;;;;;5051393;28;20468;-64
2021/11/21 08:00:45;;;;;;;17.40;11.13;;;4.70;99.90;;;;;;5052521;28;20926;-65
2021/11/21 08:03:11;;;;;;;16.23;12.73;;;4.70;99.90;;;;;;5052449;28;20452;-65
2021/11/21 08:05:40;;;;;;;18.03;13.40;;;4.60;99.90;;;;;;5052650;28;20448;-64
2021/11/21 08:08:07;;;;;;;19.13;13.37;;;4.60;99.90;;;;;;5050948;28;20479;-64
2021/11/21 08:10:36;;;;;;;26.40;17.60;;;4.60;99.90;;;;;;5052397;28;20539;-63
2021/11/21 08:13:03;;;;;;;24.53;15.90;;;4.60;99.90;;;;;;5052316;28;20978;-64
2021/11/21 08:15:31;;;;;;;27.57;16.70;;;4.60;99.90;;;;;;5052357;28;20455;-63
2021/11/21 08:17:57;;;;;;;33.00;19.27;;;4.60;99.90;;;;;;5051020;28;21134;-62
2021/11/21 08:20:26;;;;;;;32.40;18.30;;;4.50;99.90;;;;;;5052115;28;20476;-63
2021/11/21 08:22:54;;;;;;;28.00;16.67;;;4.60;99.90;;;;;;5050395;28;20447;-61
2021/11/21 08:25:21;;;;;;;29.37;18.10;;;4.70;99.90;;;;;;5051968;28;20542;-63
2021/11/21 08:27:48;;;;;;;29.43;18.70;;;4.60;99.90;;;;;;5050840;28;20823;-64
2021/11/21 08:30:16;;;;;;;28.43;17.43;;;4.60;99.90;;;;;;5052050;28;20444;-64
2021/11/21 08:32:43;;;;;;;31.47;17.77;;;4.60;99.90;;;;;;5052007;28;20526;-64
2021/11/21 08:35:10;;;;;;;27.97;17.23;;;4.60;99.90;;;;;;5051757;28;20470;-65
2021/11/21 08:37:37;;;;;;;24.73;16.33;;;4.60;99.90;;;;;;5050559;28;20550;-65
2021/11/21 08:40:06;;;;;;;25.53;15.80;;;4.70;99.90;;;;;;5051389;28;20889;-62
2021/11/21 08:42:34;;;;;;;21.23;14.37;;;4.70;99.90;;;;;;5051923;28;20450;-64
2021/11/21 08:45:01;;;;;;;20.10;12.73;;;4.70;99.90;;;;;;5051829;28;20503;-64
2021/11/21 08:47:28;;;;;;;21.30;13.13;;;4.80;99.90;;;;;;5050544;28;20471;-64
2021/11/21 08:49:55;;;;;;;20.40;12.80;;;4.70;99.90;;;;;;5051637;28;20444;-64
2021/11/21 08:52:22;;;;;;;22.10;14.53;;;4.70;99.90;;;;;;5051560;28;20971;-64
2021/11/21 08:54:48;;;;;;;19.37;14.60;;;4.70;99.90;;;;;;5051620;28;20470;-64
2021/11/21 08:57:17;;;;;;;20.77;13.13;;;4.70;99.90;;;;;;5050221;28;20471;-67
2021/11/21 08:59:44;;;;;;;18.70;13.00;;;4.80;99.90;;;;;;5051322;28;20483;-63
2021/11/21 09:02:11;;;;;;;19.57;13.73;;;4.80;99.90;;;;;;5051128;28;20475;-63
2021/11/21 09:04:38;;;;;;;18.33;11.10;;;4.80;99.90;;;;;;5050525;28;20827;-65
2021/11/21 09:07:04;;;;;;;17.50;10.93;;;4.90;99.90;;;;;;5050074;28;20472;-62
2021/11/21 09:09:31;;;;;;;17.70;11.53;;;4.90;99.90;;;;;;5050997;28;20440;-65
2021/11/21 09:11:58;;;;;;;17.53;11.40;;;4.80;99.90;;;;;;5050911;28;20949;-63
2021/11/21 09:14:26;;;;;;;18.13;10.90;;;4.80;99.90;;;;;;5050930;28;20447;-63
2021/11/21 09:16:53;;;;;;;16.77;10.90;;;4.90;99.90;;;;;;5049913;28;20503;-64
2021/11/21 09:19:20;;;;;;;19.20;11.37;;;5.00;99.90;;;;;;5050944;28;20460;-62
2021/11/21 09:21:47;;;;;;;16.07;11.20;;;5.00;99.90;;;;;;5051099;28;20868;-61
2021/11/21 09:24:15;;;;;;;16.40;11.10;;;5.10;99.90;;;;;;5051263;28;20448;-63
2021/11/21 09:26:42;;;;;;;18.60;12.10;;;5.10;99.90;;;;;;5049904;28;20471;-64
2021/11/21 09:29:09;;;;;;;16.10;10.77;;;5.10;99.90;;;;;;5051159;28;20443;-57
2021/11/21 09:31:37;;;;;;;14.73;9.43;;;5.10;99.90;;;;;;5051006;28;20447;-61
2021/11/21 09:34:05;;;;;;;14.33;11.00;;;5.10;99.90;;;;;;5051115;28;20963;-63
2021/11/21 09:36:34;;;;;;;17.30;10.67;;;5.10;99.90;;;;;;5050253;28;20443;-63
2021/11/21 09:39:01;;;;;;;18.40;11.03;;;5.00;99.90;;;;;;5051034;28;21049;-62
2021/11/21 09:41:28;;;;;;;14.17;10.13;;;5.00;99.90;;;;;;5050909;28;20492;-66
2021/11/21 09:43:55;;;;;;;18.33;13.03;;;5.00;99.90;;;;;;5050156;28;20454;-67
2021/11/21 09:46:22;;;;;;;20.83;14.40;;;5.00;99.90;;;;;;5049453;28;20447;-62
2021/11/21 09:48:50;;;;;;;19.80;13.13;;;5.00;99.90;;;;;;5050317;28;20497;-64
2021/11/21 09:51:17;;;;;;;19.00;11.73;;;4.90;99.90;;;;;;5051087;28;20448;-63
2021/11/21 09:53:45;;;;;;;21.20;12.10;;;4.80;99.90;;;;;;5040968;28;20460;-64
2021/11/21 09:56:12;;;;;;;20.77;14.57;;;4.80;99.90;;;;;;5039354;28;20464;-63
2021/11/21 09:58:39;;;;;;;21.23;13.00;;;4.70;99.90;;;;;;5039000;28;20473;-66
2021/11/21 10:01:06;;;;;;;19.23;11.80;;;4.70;99.90;;;;;;5038559;28;20487;-64
2021/11/21 10:03:44;;;;;;;21.60;13.40;;;4.70;99.90;;;;;;5046138;28;20464;-64
2021/11/21 10:06:30;;;;;;;17.77;10.93;;;4.70;99.90;;;;;;5044008;28;20451;-64
2021/11/21 10:08:57;;;;;;;18.87;10.40;;;4.80;99.90;;;;;;5046477;28;20458;-64
2021/11/21 10:11:24;;;;;;;20.50;13.03;;;4.90;99.90;;;;;;5049705;28;20450;-62
2021/11/21 10:13:54;;;;;;;20.67;11.10;;;4.80;99.90;;;;;;5050046;28;20448;-64
2021/11/21 10:16:28;;;;;;;18.77;10.80;;;4.60;99.90;;;;;;5049179;28;20821;-65
2021/11/21 10:18:57;;;;;;;19.67;12.00;;;4.60;99.90;;;;;;5049525;28;20531;-63
2021/11/21 10:21:27;;;;;;;18.80;10.80;;;4.70;99.90;;;;;;5050393;28;20487;-65
2021/11/21 10:24:21;;;;;;;21.33;11.43;;;4.70;99.90;;;;;;5049553;28;20439;-65
2021/11/21 10:27:00;;;;;;;18.60;12.03;;;4.60;99.90;;;;;;5037451;28;21246;-64
2021/11/21 10:29:29;;;;;;;22.37;11.87;;;4.70;99.90;;;;;;5041694;28;20871;-63
2021/11/21 10:31:56;;;;;;;20.10;10.07;;;4.80;99.90;;;;;;5036996;28;20524;-65
2021/11/21 10:34:23;;;;;;;19.70;11.53;;;4.80;99.90;;;;;;5049562;28;20444;-64
2021/11/21 10:36:51;;;;;;;17.13;10.40;;;4.70;99.90;;;;;;5048439;28;20973;-65
2021/11/21 10:39:25;;;;;;;15.47;10.00;;;4.70;99.90;;;;;;5045885;28;20472;-65
2021/11/21 10:41:57;;;;;;;22.03;12.10;;;4.70;99.90;;;;;;5049798;28;20839;-65
2021/11/21 10:44:24;;;;;;;18.60;9.67;;;4.80;99.90;;;;;;5045097;28;21020;-62
2021/11/21 10:46:53;;;;;;;16.00;8.97;;;4.80;99.90;;;;;;5045519;28;20464;-62
2021/11/21 10:49:24;;;;;;;15.97;9.53;;;4.90;99.90;;;;;;5038223;28;20995;-60
2021/11/21 10:52:08;;;;;;;14.83;8.20;;;5.00;99.90;;;;;;5045839;28;20520;-62
2021/11/21 10:54:37;;;;;;;10.70;6.93;;;4.90;99.90;;;;;;5039280;28;20461;-62
2021/11/21 10:57:07;;;;;;;15.97;7.53;;;4.90;99.90;;;;;;5054489;28;20467;-65
2021/11/21 10:59:37;;;;;;;13.00;7.40;;;4.90;99.90;;;;;;5045819;28;20463;-63
2021/11/21 11:02:09;;;;;;;14.97;9.87;;;4.80;99.90;;;;;;5057445;28;21012;-64
2021/11/21 11:04:37;;;;;;;13.87;8.13;;;4.70;99.90;;;;;;5038835;28;20452;-63
2021/11/21 11:07:17;;;;;;;13.10;7.90;;;4.70;99.90;;;;;;5038369;28;21104;-64
2021/11/21 11:09:44;;;;;;;11.53;6.93;;;4.70;99.90;;;;;;5049120;28;20531;-64
2021/11/21 11:12:11;;;;;;;15.67;9.93;;;4.80;99.90;;;;;;5049653;28;20835;-62
2021/11/21 11:14:38;;;;;;;12.73;8.00;;;4.80;99.90;;;;;;5053196;28;20452;-65
2021/11/21 11:17:06;;;;;;;11.27;7.77;;;4.80;99.90;;;;;;5050509;28;20555;-63
2021/11/21 11:19:35;;;;;;;12.03;7.20;;;4.80;99.90;;;;;;5048962;28;20863;-64
2021/11/21 11:22:03;;;;;;;17.07;9.63;;;4.80;99.90;;;;;;5041300;28;20487;-63
2021/11/21 11:24:34;;;;;;;11.47;7.90;;;4.90;99.90;;;;;;5054417;28;20447;-64
2021/11/21 11:27:08;;;;;;;13.50;7.97;;;5.00;99.90;;;;;;5058916;28;20467;-64
2021/11/21 11:29:38;;;;;;;15.17;8.33;;;5.10;99.90;;;;;;5058544;28;20550;-63
2021/11/21 11:32:31;;;;;;;11.70;8.00;;;5.10;99.90;;;;;;5059739;28;20440;-64
2021/11/21 11:34:59;;;;;;;10.20;7.30;;;5.10;99.90;;;;;;5058727;28;20996;-63
2021/11/21 11:37:45;;;;;;;11.50;7.33;;;5.10;99.90;;;;;;5049284;28;20471;-62
2021/11/21 11:40:52;;;;;;;12.60;7.77;;;5.10;99.90;;;;;;5052285;28;20447;-62
2021/11/21 11:43:44;;;;;;;11.77;7.80;;;5.10;99.90;;;;;;5060733;28;20473;-63
2021/11/21 11:46:32;;;;;;;13.03;7.70;;;5.20;99.90;;;;;;5063314;28;20485;-65
2021/11/21 11:49:03;;;;;;;9.57;6.93;;;5.30;99.90;;;;;;5065962;28;20447;-65
2021/11/21 11:51:52;;;;;;;9.87;7.23;;;5.40;99.90;;;;;;5058572;28;20535;-63
2021/11/21 11:54:28;;;;;;;9.93;6.53;;;5.50;99.90;;;;;;5058483;28;20454;-63
2021/11/21 11:57:00;;;;;;;11.57;6.70;;;5.50;99.90;;;;;;5062791;28;20461;-62
2021/11/21 11:59:32;;;;;;;9.83;6.47;;;5.60;99.90;;;;;;5065185;28;20455;-63
2021/11/21 12:02:02;;;;;;;14.47;7.47;;;5.70;99.90;;;;;;5065705;28;20486;-63
2021/11/21 12:04:57;;;;;;;9.40;5.90;;;5.80;99.90;;;;;;5065001;28;20925;-63
2021/11/21 12:07:42;;;;;;;8.80;5.70;;;5.70;99.90;;;;;;5028390;28;20478;-64
2021/11/21 12:10:19;;;;;;;9.77;7.30;;;5.70;99.90;;;;;;5037640;28;20452;-62
2021/11/21 12:13:11;;;;;;;10.87;6.20;;;5.80;99.90;;;;;;5048641;28;20992;-64
2021/11/21 12:16:01;;;;;;;7.67;5.87;;;5.70;99.90;;;;;;5043454;28;20486;-64
2021/11/21 12:18:51;;;;;;;7.80;5.97;;;5.70;99.90;;;;;;5039607;28;20920;-65
2021/11/21 12:21:34;;;;;;;8.80;5.70;;;5.70;99.90;;;;;;5043094;28;20579;-63
2021/11/21 12:24:04;;;;;;;8.70;6.20;;;5.70;99.90;;;;;;5050941;28;20523;-63
2021/11/21 12:26:38;;;;;;;9.37;6.07;;;5.80;99.90;;;;;;5049592;28;20437;-62
2021/11/21 12:29:26;;;;;;;10.80;7.00;;;5.80;99.90;;;;;;5052142;28;20468;-64
2021/11/21 12:31:55;;;;;;;8.63;5.83;;;5.90;99.90;;;;;;5040083;28;20444;-64
2021/11/21 12:34:30;;;;;;;7.00;5.73;;;6.00;99.90;;;;;;5052695;28;20440;-64
2021/11/21 12:37:12;;;;;;;10.43;6.20;;;6.00;99.90;;;;;;5051227;28;20468;-66
2021/11/21 12:39:41;;;;;;;7.33;5.00;;;6.10;99.90;;;;;;5051651;28;20447;-64
2021/11/21 12:42:10;;;;;;;7.87;5.20;;;6.10;99.90;;;;;;5051976;28;20489;-65
2021/11/21 12:44:38;;;;;;;8.53;5.57;;;6.10;99.90;;;;;;5040398;28;20510;-65
2021/11/21 12:47:09;;;;;;;9.43;5.28;;;6.10;99.90;;;;;;5046977;28;20668;-65